createdAt,value
2022-12-25T00:01:22.367Z,100775.06
2022-12-25T00:03:49.444Z,100773.34
2022-12-25T00:06:15.901Z,100772.50
2022-12-25T00:08:42.321Z,100766.94
2022-12-25T00:11:14.210Z,100768.13
2022-12-25T00:13:41.028Z,100764.38
2022-12-25T00:16:09.652Z,100744.72
2022-12-25T00:18:36.231Z,100737.19
2022-12-25T00:21:05.636Z,100739.97
2022-12-25T00:23:32.499Z,100745.09
2022-12-25T00:25:58.945Z,100734.38
2022-12-25T00:28:25.876Z,100725.50
2022-12-25T00:30:52.413Z,100726.72
2022-12-25T00:33:19.035Z,100729.28
2022-12-25T00:35:45.548Z,100727.59
2022-12-25T00:38:11.918Z,100725.03
2022-12-25T00:40:43.057Z,100731.22
2022-12-25T00:43:09.983Z,100731.56
2022-12-25T00:45:36.449Z,100740.22
2022-12-25T00:48:03.033Z,100741.94
2022-12-25T00:50:29.483Z,100748.13
2022-12-25T00:52:55.797Z,100751.53
2022-12-25T00:55:22.131Z,100743.38
2022-12-25T00:57:48.519Z,100750.22
2022-12-25T01:00:15.440Z,100750.34
2022-12-25T01:02:41.896Z,100750.22
2022-12-25T01:08:18.719Z,100751.19
2022-12-25T01:10:45.055Z,100758.34
2022-12-25T01:13:11.407Z,100748.97
2022-12-25T01:15:37.715Z,100753.88
2022-12-25T01:18:07.776Z,100762.72
2022-12-25T01:20:35.162Z,100760.19
2022-12-25T01:23:01.520Z,100767.97
2022-12-25T01:25:27.873Z,100786.66
2022-12-25T01:27:54.296Z,100778.53
2022-12-25T01:30:20.670Z,100774.03
2022-12-25T01:32:47.001Z,100774.41
2022-12-25T01:35:13.407Z,100768.44
2022-12-25T01:37:39.731Z,100766.13
2022-12-25T01:40:07.128Z,100768.06
2022-12-25T01:42:33.648Z,100759.94
2022-12-25T01:45:27.423Z,100758.97
2022-12-25T01:47:53.820Z,100745.94
2022-12-25T01:50:20.878Z,100745.00
2022-12-25T01:52:48.132Z,100742.91
2022-12-25T01:55:14.961Z,100740.13
2022-12-25T01:57:43.031Z,100737.69
2022-12-25T02:00:10.806Z,100740.25
2022-12-25T02:02:37.666Z,100748.03
2022-12-25T02:05:11.988Z,100733.69
2022-12-25T02:07:42.939Z,100722.50
2022-12-25T02:10:10.838Z,100728.59
2022-12-25T02:12:38.503Z,100716.38
2022-12-25T02:15:15.389Z,100720.28
2022-12-25T02:18:02.786Z,100715.41
2022-12-25T02:20:44.273Z,100721.72
2022-12-25T02:23:28.884Z,100724.28
2022-12-25T02:26:16.928Z,100718.56
2022-12-25T02:28:50.134Z,100729.25
2022-12-25T02:31:36.455Z,100729.13
2022-12-25T02:34:11.524Z,100730.22
2022-12-25T02:36:48.932Z,100728.28
2022-12-25T02:39:44.247Z,100724.63
2022-12-25T02:42:16.487Z,100716.09
2022-12-25T02:45:06.053Z,100714.41
2022-12-25T02:47:53.045Z,100722.31
2022-12-25T02:50:39.289Z,100717.44
2022-12-25T02:53:27.680Z,100722.53
2022-12-25T02:56:14.655Z,100715.25
2022-12-25T02:59:01.556Z,100720.72
2022-12-25T03:01:51.382Z,100714.00
2022-12-25T03:04:41.571Z,100713.91
2022-12-25T03:07:15.791Z,100703.81
2022-12-25T03:10:21.521Z,100710.97
2022-12-25T03:13:04.109Z,100714.63
2022-12-25T03:15:51.469Z,100708.06
2022-12-25T03:18:22.266Z,100711.59
2022-12-25T03:21:07.308Z,100702.97
2022-12-25T03:23:53.730Z,100701.25
2022-12-25T03:26:38.536Z,100705.09
2022-12-25T03:29:04.925Z,100713.66
2022-12-25T03:31:45.291Z,100710.97
2022-12-25T03:34:35.922Z,100705.75
2022-12-25T03:37:45.634Z,100707.22
2022-12-25T03:40:51.271Z,100714.38
2022-12-25T03:43:57.066Z,100702.56
2022-12-25T03:46:55.850Z,100706.06
2022-12-25T03:49:48.718Z,100719.72
2022-12-25T03:52:37.433Z,100705.09
2022-12-25T03:55:26.953Z,100690.16
2022-12-25T03:58:11.935Z,100687.25
2022-12-25T04:00:56.675Z,100684.47
2022-12-25T04:03:41.576Z,100678.63
2022-12-25T04:06:26.317Z,100674.25
2022-12-25T04:09:11.168Z,100677.66
2022-12-25T04:12:02.027Z,100674.75
2022-12-25T04:14:48.148Z,100675.59
2022-12-25T04:17:32.991Z,100668.94
2022-12-25T04:20:17.761Z,100656.78
2022-12-25T04:23:02.541Z,100669.56
2022-12-25T04:25:47.461Z,100668.72
2022-12-25T04:28:32.121Z,100661.66
2022-12-25T04:31:20.162Z,100676.72
2022-12-25T04:34:04.979Z,100663.50
2022-12-25T04:36:31.367Z,100674.06
2022-12-25T04:38:57.701Z,100679.41
2022-12-25T04:41:24.099Z,100677.69
2022-12-25T04:43:50.464Z,100669.56
2022-12-25T04:46:16.837Z,100663.50
2022-12-25T04:48:43.243Z,100667.00
2022-12-25T04:51:21.084Z,100662.63
2022-12-25T04:53:48.933Z,100659.00
2022-12-25T04:56:16.472Z,100656.78
2022-12-25T04:58:43.164Z,100669.69
2022-12-25T05:01:10.664Z,100671.25
2022-12-25T05:03:37.590Z,100675.53
2022-12-25T05:06:05.339Z,100663.25
2022-12-25T05:08:34.026Z,100670.19
2022-12-25T05:11:04.492Z,100668.25
2022-12-25T05:13:31.723Z,100663.16
2022-12-25T05:15:58.172Z,100661.44
2022-12-25T05:18:24.750Z,100660.69
2022-12-25T05:20:53.179Z,100667.84
2022-12-25T05:23:19.781Z,100672.22
2022-12-25T05:25:46.202Z,100674.81
2022-12-25T05:28:12.534Z,100668.72
2022-12-25T05:30:39.419Z,100670.53
2022-12-25T05:33:05.872Z,100666.78
2022-12-25T05:35:32.379Z,100660.47
2022-12-25T05:37:58.713Z,100646.97
2022-12-25T05:40:25.122Z,100643.63
2022-12-25T05:42:51.448Z,100660.13
2022-12-25T05:45:17.936Z,100647.13
2022-12-25T05:47:44.300Z,100647.13
2022-12-25T05:50:10.955Z,100660.22
2022-12-25T05:52:37.413Z,100653.06
2022-12-25T05:55:03.965Z,100644.34
2022-12-25T05:57:31.777Z,100662.06
2022-12-25T05:59:58.164Z,100656.72
2022-12-25T06:02:25.364Z,100654.03
2022-12-25T06:04:51.898Z,100670.56
2022-12-25T06:07:18.196Z,100663.63
2022-12-25T06:09:44.583Z,100662.66
2022-12-25T06:12:10.920Z,100653.06
2022-12-25T06:14:37.235Z,100654.66
2022-12-25T06:17:03.701Z,100650.03
2022-12-25T06:19:30.208Z,100647.38
2022-12-25T06:21:56.581Z,100648.34
2022-12-25T06:24:23.614Z,100636.94
2022-12-25T06:26:50.200Z,100640.25
2022-12-25T06:29:16.596Z,100634.00
2022-12-25T06:31:43.034Z,100626.63
2022-12-25T06:34:10.121Z,100622.38
2022-12-25T06:36:38.391Z,100617.03
2022-12-25T06:39:04.786Z,100617.13
2022-12-25T06:41:31.322Z,100619.72
2022-12-25T06:44:00.226Z,100628.47
2022-12-25T06:46:29.177Z,100631.97
2022-12-25T06:48:56.861Z,100623.72
2022-12-25T06:51:25.973Z,100614.97
2022-12-25T06:53:53.284Z,100618.38
2022-12-25T06:56:22.242Z,100620.06
2022-12-25T06:58:50.854Z,100628.47
2022-12-25T07:01:21.179Z,100655.56
2022-12-25T07:03:51.571Z,100646.56
2022-12-25T07:06:17.959Z,100646.34
2022-12-25T07:08:44.349Z,100630.69
2022-12-25T07:11:10.849Z,100637.72
2022-12-25T07:13:37.182Z,100637.59
2022-12-25T07:16:05.227Z,100629.47
2022-12-25T07:18:32.162Z,100611.59
2022-12-25T07:21:01.186Z,100625.59
2022-12-25T07:23:27.516Z,100605.53
2022-12-25T07:25:55.429Z,100616.22
2022-12-25T07:28:21.835Z,100615.50
2022-12-25T07:30:48.239Z,100618.91
2022-12-25T07:33:14.928Z,100612.69
2022-12-25T07:35:41.476Z,100617.91
2022-12-25T07:38:08.080Z,100608.94
2022-12-25T07:40:35.395Z,100607.84
2022-12-25T07:43:01.794Z,100606.66
2022-12-25T07:45:28.183Z,100602.41
2022-12-25T07:47:55.241Z,100602.28
2022-12-25T07:50:21.806Z,100603.00
2022-12-25T07:52:48.082Z,100609.31
2022-12-25T07:55:14.508Z,100609.91
2022-12-25T07:57:40.913Z,100615.25
2022-12-25T08:00:07.831Z,100622.56
2022-12-25T08:08:15.698Z,100609.44
2022-12-25T08:10:48.595Z,100598.25
2022-12-25T08:13:14.986Z,100591.72
2022-12-25T08:15:41.965Z,100583.78
2022-12-25T08:18:08.364Z,100576.63
2022-12-25T08:20:35.050Z,100560.72
2022-12-25T08:23:01.477Z,100561.22
2022-12-25T08:25:27.876Z,100571.31
2022-12-25T08:27:54.273Z,100572.28
2022-12-25T08:30:20.618Z,100593.41
2022-12-25T08:32:47.002Z,100583.59
2022-12-25T08:35:13.380Z,100581.75
2022-12-25T08:37:39.956Z,100570.34
2022-12-25T08:40:06.845Z,100567.69
2022-12-25T08:42:33.127Z,100555.75
2022-12-25T08:44:59.483Z,100545.91
2022-12-25T08:47:25.812Z,100559.66
2022-12-25T08:49:52.136Z,100574.72
2022-12-25T08:52:18.505Z,100580.81
2022-12-25T08:54:46.977Z,100588.84
2022-12-25T08:57:13.278Z,100593.22
2022-12-25T08:59:39.589Z,100586.16
2022-12-25T09:02:06.310Z,100586.63
2022-12-25T09:04:32.750Z,100592.63
2022-12-25T09:07:00.166Z,100593.94
2022-12-25T09:09:28.029Z,100597.34
2022-12-25T09:11:54.542Z,100608.88
2022-12-25T09:14:21.399Z,100609.50
2022-12-25T09:16:50.260Z,100608.75
2022-12-25T09:19:16.616Z,100608.66
2022-12-25T09:21:42.947Z,100602.22
2022-12-25T09:24:09.308Z,100592.72
2022-12-25T09:26:36.962Z,100588.22
2022-12-25T09:29:03.321Z,100588.47
2022-12-25T09:31:30.371Z,100590.16
2022-12-25T09:33:58.083Z,100579.13
2022-12-25T09:36:25.004Z,100586.88
2022-12-25T09:38:51.493Z,100572.94
2022-12-25T09:41:29.722Z,100584.94
2022-12-25T09:44:09.960Z,100588.84
2022-12-25T09:46:43.551Z,100576.69
2022-12-25T09:49:16.315Z,100559.91
2022-12-25T09:51:45.437Z,100564.28
2022-12-25T09:54:27.253Z,100557.84
2022-12-25T09:56:53.605Z,100537.41
2022-12-25T09:59:27.191Z,100533.91
2022-12-25T10:02:24.890Z,100511.66
2022-12-25T10:05:17.958Z,100518.84
2022-12-25T10:07:53.182Z,100521.00
2022-12-25T10:10:46.685Z,100512.47
2022-12-25T10:13:49.299Z,100512.81
2022-12-25T10:16:37.535Z,100513.88
2022-12-25T10:19:13.049Z,100516.31
2022-12-25T10:21:39.546Z,100517.75
2022-12-25T10:24:10.255Z,100513.72
2022-12-25T10:26:36.585Z,100522.22
2022-12-25T10:29:13.061Z,100522.56
2022-12-25T10:31:40.197Z,100526.19
2022-12-25T10:34:07.016Z,100529.34
2022-12-25T10:36:33.480Z,100525.44
2022-12-25T10:38:59.927Z,100533.22
2022-12-25T10:41:26.282Z,100534.53
2022-12-25T10:43:57.455Z,100532.91
2022-12-25T10:46:28.758Z,100525.94
2022-12-25T10:48:58.718Z,100517.63
2022-12-25T10:51:34.334Z,100513.13
2022-12-25T10:54:20.525Z,100508.13
2022-12-25T10:57:13.128Z,100502.91
2022-12-25T10:59:47.732Z,100485.63
2022-12-25T11:02:21.731Z,100480.41
2022-12-25T11:04:48.593Z,100486.84
2022-12-25T11:07:25.597Z,100486.13
2022-12-25T11:10:05.762Z,100483.72
2022-12-25T11:12:37.230Z,100493.19
2022-12-25T11:15:26.208Z,100501.22
2022-12-25T11:17:52.498Z,100506.56
2022-12-25T11:20:20.165Z,100507.69
2022-12-25T11:22:47.877Z,100506.84
2022-12-25T11:25:20.925Z,100489.78
2022-12-25T11:27:57.136Z,100480.50
2022-12-25T11:30:23.597Z,100487.69
2022-12-25T11:32:55.493Z,100482.53
2022-12-25T11:35:27.654Z,100478.44
2022-12-25T11:37:54.133Z,100467.56
2022-12-25T11:40:34.613Z,100461.94
2022-12-25T11:43:17.350Z,100460.72
2022-12-25T11:45:52.312Z,100453.84
2022-12-25T11:48:28.090Z,100440.88
2022-12-25T11:50:59.189Z,100427.09
2022-12-25T11:53:31.708Z,100426.66
2022-12-25T11:56:02.120Z,100412.16
2022-12-25T11:58:36.059Z,100411.31
2022-12-25T12:01:09.044Z,100384.38
2022-12-25T12:03:38.476Z,100362.66
2022-12-25T12:06:25.777Z,100361.28
2022-12-25T12:09:01.494Z,100364.66
2022-12-25T12:11:43.598Z,100364.13
2022-12-25T12:14:28.718Z,100371.16
2022-12-25T12:16:55.225Z,100388.97
2022-12-25T12:19:26.824Z,100390.13
2022-12-25T12:21:55.922Z,100390.13
2022-12-25T12:24:25.167Z,100396.25
2022-12-25T12:27:19.273Z,100385.81
2022-12-25T12:29:50.920Z,100380.28
2022-12-25T12:32:44.806Z,100378.78
2022-12-25T12:35:18.925Z,100376.41
2022-12-25T12:37:51.045Z,100367.59
2022-12-25T12:40:37.186Z,100361.28
2022-12-25T12:43:06.168Z,100367.03
2022-12-25T12:45:36.159Z,100366.63
2022-12-25T12:48:14.595Z,100374.47
2022-12-25T12:50:41.964Z,100367.31
2022-12-25T12:53:23.700Z,100356.47
2022-12-25T12:55:51.489Z,100351.75
2022-12-25T12:58:34.943Z,100351.03
2022-12-25T13:01:17.020Z,100357.88
2022-12-25T13:03:57.846Z,100354.66
2022-12-25T13:06:26.851Z,100368.66
2022-12-25T13:09:25.408Z,100359.94
2022-12-25T13:11:52.122Z,100349.78
2022-12-25T13:14:21.477Z,100350.63
2022-12-25T13:16:51.203Z,100352.16
2022-12-25T13:19:23.479Z,100363.91
2022-12-25T13:22:01.696Z,100357.13
2022-12-25T13:24:30.952Z,100352.06
2022-12-25T13:26:58.659Z,100348.38
2022-12-25T13:29:32.229Z,100333.28
2022-12-25T13:32:00.256Z,100338.94
2022-12-25T13:34:32.668Z,100323.38
2022-12-25T13:37:01.804Z,100316.03
2022-12-25T13:39:28.489Z,100307.97
2022-12-25T13:42:09.441Z,100289.63
2022-12-25T13:44:44.440Z,100291.00
2022-12-25T13:47:16.979Z,100293.41
2022-12-25T13:49:43.365Z,100306.16
2022-12-25T13:52:16.224Z,100301.94
2022-12-25T13:55:01.168Z,100307.00
2022-12-25T13:57:34.328Z,100299.94
2022-12-25T14:00:01.560Z,100306.00
2022-12-25T14:02:35.942Z,100311.69
2022-12-25T14:05:03.447Z,100302.47
2022-12-25T14:07:29.878Z,100314.91
2022-12-25T14:09:59.916Z,100314.91
2022-12-25T14:12:28.952Z,100319.59
2022-12-25T14:14:56.889Z,100315.06
2022-12-25T14:17:23.912Z,100318.31
2022-12-25T14:20:05.729Z,100319.19
2022-12-25T14:22:35.934Z,100330.38
2022-12-25T14:25:02.363Z,100333.16
2022-12-25T14:27:30.395Z,100329.94
2022-12-25T14:29:58.982Z,100324.88
2022-12-25T14:32:28.427Z,100323.09
2022-12-25T14:34:58.612Z,100318.44
2022-12-25T14:37:30.807Z,100334.25
2022-12-25T14:40:03.226Z,100329.88
2022-12-25T14:42:33.221Z,100329.44
2022-12-25T14:45:26.425Z,100335.13
2022-12-25T14:47:55.346Z,100329.47
2022-12-25T14:50:43.699Z,100336.50
2022-12-25T14:53:22.605Z,100322.00
2022-12-25T14:55:51.875Z,100326.09
2022-12-25T14:58:29.697Z,100319.28
2022-12-25T15:00:58.518Z,100328.34
2022-12-25T15:03:35.328Z,100319.00
2022-12-25T15:06:07.064Z,100318.00
2022-12-25T15:08:34.940Z,100323.53
2022-12-25T15:11:03.042Z,100320.41
2022-12-25T15:13:31.239Z,100315.47
2022-12-25T15:16:03.029Z,100320.84
2022-12-25T15:18:38.925Z,100316.31
2022-12-25T15:21:05.507Z,100312.22
2022-12-25T15:23:31.908Z,100305.28
2022-12-25T15:25:58.279Z,100310.22
2022-12-25T15:28:24.653Z,100299.94
2022-12-25T15:30:51.009Z,100298.34
2022-12-25T15:33:18.876Z,100310.50
2022-12-25T15:35:45.599Z,100316.28
2022-12-25T15:38:13.191Z,100319.09
2022-12-25T15:40:40.705Z,100328.69
2022-12-25T15:43:14.569Z,100327.25
2022-12-25T15:45:53.815Z,100336.28
2022-12-25T15:48:20.225Z,100335.84
2022-12-25T15:50:46.716Z,100336.28
2022-12-25T15:53:13.200Z,100341.47
2022-12-25T15:55:39.807Z,100337.91
2022-12-25T15:58:06.109Z,100351.84
2022-12-25T16:00:32.463Z,100339.84
2022-12-25T16:02:59.220Z,100334.47
2022-12-25T16:05:26.626Z,100335.75
2022-12-25T16:07:53.010Z,100322.22
2022-12-25T16:10:20.321Z,100312.34
2022-12-25T16:12:47.176Z,100309.53
2022-12-25T16:15:15.233Z,100305.44
2022-12-25T16:17:41.598Z,100300.34
2022-12-25T16:20:09.128Z,100299.91
2022-12-25T16:22:39.792Z,100309.19
2022-12-25T16:25:13.130Z,100300.69
2022-12-25T16:27:39.446Z,100294.91
2022-12-25T16:30:06.889Z,100281.81
2022-12-25T16:32:33.305Z,100290.78
2022-12-25T16:34:59.693Z,100289.75
2022-12-25T16:37:27.087Z,100296.69
2022-12-25T16:39:53.377Z,100304.13
2022-12-25T16:42:19.669Z,100307.47
2022-12-25T16:44:46.092Z,100312.38
2022-12-25T16:47:12.404Z,100322.50
2022-12-25T16:49:38.727Z,100324.28
2022-12-25T16:52:05.123Z,100316.66
2022-12-25T16:54:31.402Z,100316.31
2022-12-25T16:56:57.789Z,100298.44
2022-12-25T16:59:24.115Z,100307.19
2022-12-25T17:01:50.589Z,100302.66
2022-12-25T17:04:17.018Z,100310.69
2022-12-25T17:06:43.452Z,100331.38
2022-12-25T17:09:10.525Z,100333.13
2022-12-25T17:11:36.921Z,100348.88
2022-12-25T17:14:04.233Z,100337.78
2022-12-25T17:16:34.031Z,100332.00
2022-12-25T17:19:08.114Z,100334.34
2022-12-25T17:21:35.047Z,100333.22
2022-12-25T17:24:03.969Z,100338.91
2022-12-25T17:26:32.136Z,100344.38
2022-12-25T17:28:59.145Z,100341.25
2022-12-25T17:31:26.016Z,100349.59
2022-12-25T17:33:52.564Z,100356.06
2022-12-25T17:36:21.137Z,100354.25
2022-12-25T17:38:48.463Z,100353.75
2022-12-25T17:41:17.108Z,100336.66
2022-12-25T17:43:45.562Z,100334.38
2022-12-25T17:46:20.895Z,100305.34
2022-12-25T17:48:49.810Z,100316.16
2022-12-25T17:51:18.691Z,100330.97
2022-12-25T17:53:47.985Z,100338.88
2022-12-25T17:56:15.551Z,100324.00
2022-12-25T17:58:42.263Z,100314.88
2022-12-25T18:01:14.011Z,100306.81
2022-12-25T18:03:40.800Z,100305.78
2022-12-25T18:06:09.934Z,100313.16
2022-12-25T18:08:39.649Z,100312.34
2022-12-25T18:11:15.030Z,100326.31
2022-12-25T18:13:44.675Z,100318.59
2022-12-25T18:16:12.444Z,100320.88
2022-12-25T18:18:39.656Z,100329.63
2022-12-25T18:21:07.319Z,100327.94
2022-12-25T18:23:35.028Z,100322.56
2022-12-25T18:26:06.587Z,100326.53
2022-12-25T18:28:33.419Z,100308.66
2022-12-25T18:30:59.879Z,100305.53
2022-12-25T18:33:26.555Z,100300.47
2022-12-25T18:35:58.943Z,100293.81
2022-12-25T18:38:27.427Z,100304.53
2022-12-25T18:40:53.873Z,100296.78
2022-12-25T18:43:20.752Z,100304.22
2022-12-25T18:46:07.597Z,100301.28
2022-12-25T18:48:35.265Z,100298.63
2022-12-25T18:51:04.133Z,100307.50
2022-12-25T18:53:31.385Z,100302.84
2022-12-25T18:56:11.081Z,100294.66
2022-12-25T18:58:38.242Z,100301.88
2022-12-25T19:01:14.800Z,100304.53
2022-12-25T19:03:41.521Z,100298.47
2022-12-25T19:06:08.021Z,100303.28
2022-12-25T19:08:34.341Z,100302.41
2022-12-25T19:11:00.834Z,100292.41
2022-12-25T19:13:27.217Z,100284.22
2022-12-25T19:15:58.259Z,100274.91
2022-12-25T19:18:24.755Z,100280.56
2022-12-25T19:20:51.082Z,100292.41
2022-12-25T19:23:17.400Z,100286.06
2022-12-25T19:25:43.706Z,100294.66
2022-12-25T19:28:10.044Z,100313.94
2022-12-25T19:30:38.447Z,100309.44
2022-12-25T19:33:07.385Z,100305.22
2022-12-25T19:35:39.272Z,100307.47
2022-12-25T19:38:05.614Z,100298.00
2022-12-25T19:40:35.697Z,100314.09
2022-12-25T19:43:02.258Z,100309.31
2022-12-25T19:45:28.578Z,100304.50
2022-12-25T19:47:55.885Z,100304.06
2022-12-25T19:50:22.220Z,100318.59
2022-12-25T19:52:48.496Z,100311.56
2022-12-25T19:55:14.872Z,100304.06
2022-12-25T19:57:41.245Z,100299.53
2022-12-25T20:00:08.149Z,100301.81
2022-12-25T20:02:34.616Z,100310.56
2022-12-25T20:05:01.009Z,100312.09
2022-12-25T20:07:27.323Z,100311.09
2022-12-25T20:09:53.658Z,100306.72
2022-12-25T20:12:20.153Z,100307.03
2022-12-25T20:14:46.632Z,100309.13
2022-12-25T20:17:16.025Z,100320.81
2022-12-25T20:19:42.687Z,100329.13
2022-12-25T20:22:08.977Z,100321.63
2022-12-25T20:24:35.354Z,100325.03
2022-12-25T20:27:01.713Z,100327.13
2022-12-25T20:29:28.078Z,100335.16
2022-12-25T20:31:54.453Z,100340.25
2022-12-25T20:34:20.857Z,100338.69
2022-12-25T20:36:49.072Z,100323.59
2022-12-25T20:39:15.439Z,100321.63
2022-12-25T20:41:41.799Z,100324.19
2022-12-25T20:44:09.864Z,100325.88
2022-12-25T20:46:36.734Z,100334.09
2022-12-25T20:49:03.503Z,100338.59
2022-12-25T20:51:30.096Z,100356.66
2022-12-25T20:53:56.633Z,100353.56
2022-12-25T20:56:25.012Z,100351.88
2022-12-25T20:58:59.673Z,100362.91
2022-12-25T21:01:27.667Z,100360.50
2022-12-25T21:03:55.054Z,100361.47
2022-12-25T21:06:22.888Z,100356.53
2022-12-25T21:08:49.449Z,100354.97
2022-12-25T21:11:16.680Z,100351.72
2022-12-25T21:13:45.301Z,100353.78
2022-12-25T21:16:14.704Z,100355.78
2022-12-25T21:18:41.389Z,100368.19
2022-12-25T21:21:08.899Z,100362.13
2022-12-25T21:23:37.941Z,100374.09
2022-12-25T21:26:10.826Z,100375.19
2022-12-25T21:28:37.261Z,100379.69
2022-12-25T21:31:05.578Z,100368.28
2022-12-25T21:33:51.572Z,100381.66
2022-12-25T21:36:23.998Z,100397.22
2022-12-25T21:39:04.843Z,100401.00
2022-12-25T21:41:32.995Z,100387.88
2022-12-25T21:44:00.000Z,100378.28
2022-12-25T21:46:27.519Z,100389.84
2022-12-25T21:48:54.680Z,100380.50
2022-12-25T21:51:42.839Z,100393.31
2022-12-25T21:54:10.076Z,100399.78
2022-12-25T21:56:44.121Z,100387.91
2022-12-25T21:59:16.055Z,100392.66
2022-12-25T22:01:43.095Z,100387.06
2022-12-25T22:04:09.996Z,100399.28
2022-12-25T22:06:55.239Z,100396.13
2022-12-25T22:09:21.858Z,100387.19
2022-12-25T22:12:06.823Z,100391.84
2022-12-25T22:14:56.865Z,100369.63
2022-12-25T22:17:48.009Z,100393.91
2022-12-25T22:20:17.368Z,100387.84
2022-12-25T22:22:44.463Z,100377.13
2022-12-25T22:25:11.809Z,100386.03
2022-12-25T22:27:39.470Z,100384.75
2022-12-25T22:30:11.515Z,100393.94
2022-12-25T22:32:38.128Z,100396.03
2022-12-25T22:35:05.042Z,100387.75
2022-12-25T22:37:32.157Z,100382.13
2022-12-25T22:40:00.593Z,100388.66
2022-12-25T22:42:27.105Z,100401.22
2022-12-25T22:44:53.453Z,100398.31
2022-12-25T22:47:19.853Z,100397.19
2022-12-25T22:49:46.233Z,100401.06
2022-12-25T22:52:12.618Z,100397.81
2022-12-25T22:54:39.099Z,100376.19
2022-12-25T22:57:05.790Z,100377.34
2022-12-25T22:59:32.930Z,100379.03
2022-12-25T23:02:00.333Z,100379.31
2022-12-25T23:04:27.861Z,100386.94
2022-12-25T23:06:54.220Z,100394.72
2022-12-25T23:09:27.306Z,100391.59
2022-12-25T23:11:55.434Z,100404.16
2022-12-25T23:14:40.643Z,100388.50
2022-12-25T23:17:30.867Z,100399.94
2022-12-25T23:20:17.084Z,100389.03
2022-12-25T23:23:02.531Z,100398.50
2022-12-25T23:25:48.359Z,100412.22
2022-12-25T23:28:14.787Z,100408.41
2022-12-25T23:30:41.077Z,100398.91
2022-12-25T23:33:07.417Z,100390.69
2022-12-25T23:35:33.891Z,100392.13
2022-12-25T23:38:00.219Z,100391.25
2022-12-25T23:40:26.684Z,100389.03
2022-12-25T23:42:53.009Z,100391.56
2022-12-25T23:45:19.287Z,100388.16
2022-12-25T23:47:45.589Z,100394.50
2022-12-25T23:50:11.940Z,100403.84
2022-12-25T23:52:38.292Z,100390.56
2022-12-25T23:55:05.053Z,100400.34
2022-12-25T23:57:31.392Z,100393.53
2022-12-25T23:59:57.712Z,100393.66
